Time,TemperatureF,DewpointF,PressureIn,WindDirection,WindDirectionDegrees,WindSpeedMPH,WindSpeedGustMPH,Humidity,HourlyPrecipIn,Conditions,Clouds,dailyrainin,SoftwareType,DateUTC
2013-03-24 00:01:00,44.6,42.7,30.08,NNW,339,0.0,0.0,93,0.00,,---,0.00,VWS V14.01,2013-03-24 07:01:00,
2013-03-24 00:10:00,44.5,42.6,30.08,NNW,339,0.0,0.0,93,0.00,,---,0.00,VWS V14.01,2013-03-24 07:10:00,
2013-03-24 00:21:00,44.3,42.7,30.08,NNW,339,0.0,0.0,94,0.00,,---,0.00,VWS V14.01,2013-03-24 07:21:00,
2013-03-24 00:31:00,43.9,42.3,30.07,NNW,339,0.0,0.0,94,0.00,,---,0.00,VWS V14.01,2013-03-24 07:31:00,
2013-03-24 00:40:00,43.8,42.2,30.08,NNW,339,0.0,0.0,94,0.00,,---,0.00,VWS V14.01,2013-03-24 07:40:00,
2013-03-24 00:51:00,43.6,42.2,30.07,NNW,339,0.0,0.0,95,0.00,,---,0.00,VWS V14.01,2013-03-24 07:51:00,
2013-03-24 01:01:00,43.5,41.9,30.07,NNW,339,0.0,0.0,94,0.00,,---,0.00,VWS V14.01,2013-03-24 08:01:00,
2013-03-24 01:10:00,43.3,42.0,30.07,NNW,339,0.0,0.0,95,0.00,,---,0.00,VWS V14.01,2013-03-24 08:10:00,
2013-03-24 01:21:00,43.2,41.8,30.07,NNW,338,0.0,0.0,95,0.00,,---,0.00,VWS V14.01,2013-03-24 08:21:00,
2013-03-24 01:31:00,42.9,41.6,30.08,NNW,339,0.0,0.0,95,0.00,,---,0.00,VWS V14.01,2013-03-24 08:31:00,
2013-03-24 01:40:00,42.9,41.6,30.07,NNW,339,0.0,0.0,95,0.00,,---,0.00,VWS V14.01,2013-03-24 08:40:00,
2013-03-24 01:51:00,43.0,41.9,30.08,NNW,339,0.0,0.0,96,0.00,,---,0.00,VWS V14.01,2013-03-24 08:51:00,
2013-03-24 02:10:00,42.6,41.3,30.08,NE,45,0.0,1.0,95,0.00,,---,0.00,VWS V14.01,2013-03-24 09:10:00,
2013-03-24 02:21:00,42.4,41.1,30.08,NE,44,0.0,0.0,95,0.00,,---,0.00,VWS V14.01,2013-03-24 09:21:00,
2013-03-24 02:31:00,42.3,41.0,30.08,NE,44,0.0,0.0,95,0.00,,---,0.00,VWS V14.01,2013-03-24 09:31:00,
2013-03-24 02:40:00,42.2,40.9,30.08,NE,44,0.0,1.0,95,0.00,,---,0.00,VWS V14.01,2013-03-24 09:40:00,
2013-03-24 02:51:00,42.1,40.8,30.07,NE,45,0.0,0.0,95,0.00,,---,0.00,VWS V14.01,2013-03-24 09:51:00,
2013-03-24 03:01:00,42.1,41.0,30.07,NE,45,0.0,0.0,96,0.00,,---,0.00,VWS V14.01,2013-03-24 10:01:00,
2013-03-24 03:10:00,42.0,40.9,30.07,NE,44,0.0,0.0,96,0.00,,---,0.00,VWS V14.01,2013-03-24 10:10:00,
2013-03-24 03:21:00,41.8,40.7,30.07,NE,44,0.0,0.0,96,0.00,,---,0.00,VWS V14.01,2013-03-24 10:21:00,
2013-03-24 03:31:00,41.6,40.5,30.08,NE,44,0.0,0.0,96,0.00,,---,0.00,VWS V14.01,2013-03-24 10:31:00,
2013-03-24 03:40:00,41.4,40.3,30.08,NE,44,0.0,0.0,96,0.00,,---,0.00,VWS V14.01,2013-03-24 10:40:00,
2013-03-24 03:51:00,41.3,40.2,30.08,NNE,30,0.0,0.0,96,0.00,,---,0.00,VWS V14.01,2013-03-24 10:51:00,
2013-03-24 04:01:00,40.9,39.8,30.07,NNE,30,0.0,0.0,96,0.00,,---,0.00,VWS V14.01,2013-03-24 11:01:00,
2013-03-24 04:10:00,40.8,40.0,30.07,NNE,31,0.0,0.0,97,0.00,,---,0.00,VWS V14.01,2013-03-24 11:10:00,
2013-03-24 04:21:00,40.7,39.9,30.07,NNE,30,0.0,0.0,97,0.00,,---,0.00,VWS V14.01,2013-03-24 11:21:00,
2013-03-24 04:31:00,40.5,39.7,30.06,NNE,30,0.0,0.0,97,0.00,,---,0.00,VWS V14.01,2013-03-24 11:31:00,
2013-03-24 04:40:00,40.4,39.6,30.06,NNE,31,0.0,0.0,97,0.00,,---,0.00,VWS V14.01,2013-03-24 11:40:00,
2013-03-24 04:51:00,40.3,39.5,30.06,NNE,30,0.0,0.0,97,0.00,,---,0.00,VWS V14.01,2013-03-24 11:51:00,
2013-03-24 05:10:00,40.1,39.3,30.06,NNE,30,0.0,0.0,97,0.00,,---,0.00,VWS V14.01,2013-03-24 12:10:00,
2013-03-24 05:25:00,40.0,39.2,30.07,NNE,30,0.0,0.0,97,0.00,,---,0.00,VWS V14.01,2013-03-24 12:25:00,
2013-03-24 05:32:00,39.9,39.1,30.07,NNE,30,0.0,0.0,97,0.00,,---,0.00,VWS V14.01,2013-03-24 12:32:00,
2013-03-24 05:40:00,39.7,38.9,30.07,NNE,31,0.0,0.0,97,0.00,,---,0.00,VWS V14.01,2013-03-24 12:40:00,
2013-03-24 05:51:00,39.3,38.5,30.07,NNE,30,0.0,0.0,97,0.00,,---,0.00,VWS V14.01,2013-03-24 12:51:00,
2013-03-24 06:01:00,39.2,38.4,30.07,NNE,30,0.0,0.0,97,0.00,,---,0.00,VWS V14.01,2013-03-24 13:01:00,
2013-03-24 06:10:00,39.1,38.3,30.07,NNE,30,0.0,0.0,97,0.00,,---,0.00,VWS V14.01,2013-03-24 13:10:00,
2013-03-24 06:21:00,39.0,38.2,30.07,NNE,30,0.0,0.0,97,0.00,,---,0.00,VWS V14.01,2013-03-24 13:21:00,
2013-03-24 06:31:00,39.0,38.5,30.08,NNE,30,0.0,0.0,98,0.00,,---,0.00,VWS V14.01,2013-03-24 13:31:00,
2013-03-24 06:40:00,38.9,38.1,30.08,NNE,30,0.0,0.0,97,0.00,,---,0.00,VWS V14.01,2013-03-24 13:40:00,
2013-03-24 06:52:00,38.7,38.2,30.07,NE,48,0.0,1.0,98,0.00,,---,0.00,VWS V14.01,2013-03-24 13:52:00,
2013-03-24 07:01:00,38.8,38.3,30.07,NE,46,0.0,1.0,98,0.00,,---,0.00,VWS V14.01,2013-03-24 14:01:00,
2013-03-24 07:10:00,38.7,38.2,30.08,NE,46,0.0,0.0,98,0.00,,---,0.00,VWS V14.01,2013-03-24 14:10:00,
2013-03-24 07:21:00,38.6,38.1,30.08,NE,46,0.0,1.0,98,0.00,,---,0.00,VWS V14.01,2013-03-24 14:21:00,
2013-03-24 07:31:00,38.6,38.1,30.08,NE,46,0.0,0.0,98,0.00,,---,0.00,VWS V14.01,2013-03-24 14:31:00,
2013-03-24 07:40:00,38.3,37.5,30.08,NE,46,0.0,0.0,97,0.00,,---,0.00,VWS V14.01,2013-03-24 14:40:00,
2013-03-24 07:51:00,38.4,37.9,30.08,NE,46,0.0,0.0,98,0.00,,---,0.00,VWS V14.01,2013-03-24 14:51:00,
2013-03-24 08:01:00,38.3,37.8,30.08,NE,46,0.0,0.0,98,0.00,,---,0.00,VWS V14.01,2013-03-24 15:01:00,
2013-03-24 08:10:00,38.4,37.9,30.09,NE,46,0.0,0.0,98,0.00,,---,0.00,VWS V14.01,2013-03-24 15:10:00,
2013-03-24 08:21:00,38.7,38.2,30.08,NE,46,0.0,0.0,98,0.00,,---,0.00,VWS V14.01,2013-03-24 15:21:00,
2013-03-24 08:31:00,38.9,38.4,30.08,NE,46,0.0,0.0,98,0.00,,---,0.00,VWS V14.01,2013-03-24 15:31:00,
2013-03-24 08:40:00,39.2,38.9,30.08,NE,46,0.0,0.0,99,0.00,,---,0.00,VWS V14.01,2013-03-24 15:40:00,
2013-03-24 08:51:00,39.9,39.6,30.09,NE,46,0.0,0.0,99,0.00,,---,0.00,VWS V14.01,2013-03-24 15:51:00,
2013-03-24 09:01:00,40.5,40.2,30.09,NE,46,0.0,0.0,99,0.00,,---,0.00,VWS V14.01,2013-03-24 16:01:00,
2013-03-24 09:10:00,41.1,40.8,30.09,NE,46,0.0,0.0,99,0.00,,---,0.00,VWS V14.01,2013-03-24 16:10:00,
2013-03-24 09:21:00,41.9,41.4,30.09,NE,46,0.0,0.0,98,0.00,,---,0.00,VWS V14.01,2013-03-24 16:21:00,
2013-03-24 09:31:00,42.7,41.9,30.09,NE,46,0.0,0.0,97,0.00,,---,0.00,VWS V14.01,2013-03-24 16:31:00,
2013-03-24 09:40:00,43.6,42.2,30.09,NE,39,0.0,0.0,95,0.00,,---,0.00,VWS V14.01,2013-03-24 16:40:00,
2013-03-24 09:51:00,44.8,42.9,30.08,NE,39,0.0,0.0,93,0.00,,---,0.00,VWS V14.01,2013-03-24 16:51:00,
2013-03-24 10:01:00,45.9,43.7,30.08,NE,39,0.0,0.0,92,0.00,,---,0.00,VWS V14.01,2013-03-24 17:01:00,
2013-03-24 10:10:00,46.7,44.2,30.08,NE,39,0.0,0.0,91,0.00,,---,0.00,VWS V14.01,2013-03-24 17:10:00,
2013-03-24 10:22:00,48.1,43.5,30.08,NE,39,0.0,0.0,84,0.00,,---,0.00,VWS V14.01,2013-03-24 17:22:00,
2013-03-24 10:31:00,49.4,43.5,30.08,NE,39,0.0,0.0,80,0.00,,---,0.00,VWS V14.01,2013-03-24 17:31:00,
2013-03-24 10:40:00,50.5,43.9,30.08,NE,39,0.0,0.0,78,0.00,,---,0.00,VWS V14.01,2013-03-24 17:40:00,
2013-03-24 10:51:00,51.7,45.1,30.08,NE,39,0.0,0.0,78,0.00,,---,0.00,VWS V14.01,2013-03-24 17:51:00,
2013-03-24 11:02:00,52.6,44.9,30.08,NNE,14,0.0,0.0,75,0.00,,---,0.00,VWS V14.01,2013-03-24 18:02:00,
2013-03-24 11:10:00,53.5,44.0,30.07,NNE,13,0.0,0.0,70,0.00,,---,0.00,VWS V14.01,2013-03-24 18:10:00,
2013-03-24 11:21:00,54.8,45.9,30.07,NNE,14,0.0,0.0,72,0.00,,---,0.00,VWS V14.01,2013-03-24 18:21:00,
2013-03-24 11:31:00,55.7,47.2,30.07,NNE,14,0.0,0.0,73,0.00,,---,0.00,VWS V14.01,2013-03-24 18:31:00,
2013-03-24 11:40:00,56.5,47.9,30.07,NNE,15,0.0,0.0,73,0.00,,---,0.00,VWS V14.01,2013-03-24 18:40:00,
2013-03-24 11:51:00,57.5,48.2,30.07,North,358,0.0,1.0,71,0.00,,---,0.00,VWS V14.01,2013-03-24 18:51:00,
2013-03-24 12:01:00,58.0,48.3,30.07,North,359,0.0,0.0,70,0.00,,---,0.00,VWS V14.01,2013-03-24 19:01:00,
2013-03-24 12:10:00,58.6,47.7,30.07,North,358,0.0,0.0,67,0.00,,---,0.00,VWS V14.01,2013-03-24 19:10:00,
2013-03-24 12:21:00,59.2,46.2,30.07,North,358,0.0,1.0,62,0.00,,---,0.00,VWS V14.01,2013-03-24 19:21:00,
2013-03-24 12:31:00,59.7,47.1,30.06,North,358,0.0,0.0,63,0.00,,---,0.00,VWS V14.01,2013-03-24 19:31:00,
2013-03-24 12:40:00,60.1,47.5,30.06,North,359,0.0,0.0,63,0.00,,---,0.00,VWS V14.01,2013-03-24 19:40:00,
2013-03-24 12:52:00,60.7,47.2,30.05,North,358,0.0,0.0,61,0.00,,---,0.00,VWS V14.01,2013-03-24 19:52:00,
2013-03-24 13:01:00,61.4,46.5,30.05,North,358,1.0,1.0,58,0.00,,---,0.00,VWS V14.01,2013-03-24 20:01:00,
2013-03-24 13:10:00,62.6,47.6,30.05,North,358,0.0,1.0,58,0.00,,---,0.00,VWS V14.01,2013-03-24 20:10:00,
2013-03-24 13:21:00,63.2,48.6,30.04,North,359,0.0,1.0,59,0.00,,---,0.00,VWS V14.01,2013-03-24 20:21:00,
2013-03-24 13:31:00,64.1,49.5,30.04,NNW,336,0.0,2.0,59,0.00,,---,0.00,VWS V14.01,2013-03-24 20:31:00,
2013-03-24 13:40:00,64.2,50.0,30.03,NNW,338,1.0,2.0,60,0.00,,---,0.00,VWS V14.01,2013-03-24 20:40:00,
2013-03-24 13:52:00,64.5,48.9,30.03,West,260,2.0,4.0,57,0.00,,---,0.00,VWS V14.01,2013-03-24 20:52:00,
2013-03-24 14:02:00,64.1,50.4,30.03,NNW,333,1.0,3.0,61,0.00,,---,0.00,VWS V14.01,2013-03-24 21:02:00,
2013-03-24 14:10:00,63.8,51.0,30.02,NE,47,1.0,2.0,63,0.00,,---,0.00,VWS V14.01,2013-03-24 21:10:00,
2013-03-24 14:21:00,61.4,49.5,30.02,NE,46,0.0,2.0,65,0.00,,---,0.00,VWS V14.01,2013-03-24 21:21:00,
2013-03-24 14:31:00,60.4,49.8,30.02,North,352,0.0,1.0,68,0.00,,---,0.00,VWS V14.01,2013-03-24 21:31:00,
2013-03-24 14:40:00,60.3,50.1,30.01,NNW,348,0.0,0.0,69,0.00,,---,0.00,VWS V14.01,2013-03-24 21:40:00,
2013-03-24 14:55:00,61.4,50.7,30.01,NE,51,0.0,2.0,68,0.00,,---,0.00,VWS V14.01,2013-03-24 21:55:00,
2013-03-24 15:01:00,62.2,51.1,30.01,NE,37,0.0,2.0,67,0.00,,---,0.00,VWS V14.01,2013-03-24 22:01:00,
2013-03-24 15:10:00,62.4,51.3,30.00,NNE,19,0.0,1.0,67,0.00,,---,0.00,VWS V14.01,2013-03-24 22:10:00,
2013-03-24 15:21:00,63.1,50.3,30.00,NW,324,0.0,1.0,63,0.00,,---,0.00,VWS V14.01,2013-03-24 22:21:00,
2013-03-24 15:31:00,63.7,50.0,30.00,South,189,1.0,2.0,61,0.00,,---,0.00,VWS V14.01,2013-03-24 22:31:00,
2013-03-24 15:40:00,63.8,49.6,29.99,South,191,0.0,2.0,60,0.00,,---,0.00,VWS V14.01,2013-03-24 22:40:00,
2013-03-24 15:51:00,63.5,48.5,29.99,South,191,0.0,1.0,58,0.00,,---,0.00,VWS V14.01,2013-03-24 22:51:00,
2013-03-24 16:01:00,63.5,48.5,29.99,NW,322,0.0,1.0,58,0.00,,---,0.00,VWS V14.01,2013-03-24 23:01:00,
2013-03-24 16:11:00,63.2,45.8,29.99,SSE,163,0.0,1.0,53,0.00,,---,0.00,VWS V14.01,2013-03-24 23:11:00,
2013-03-24 16:21:00,63.0,44.6,29.99,North,354,0.0,3.0,51,0.00,,---,0.00,VWS V14.01,2013-03-24 23:21:00,
2013-03-24 16:32:00,61.3,49.0,29.98,North,354,0.0,1.0,64,0.00,,---,0.00,VWS V14.01,2013-03-24 23:32:00,
2013-03-24 16:41:00,60.1,49.1,29.98,North,354,0.0,1.0,67,0.00,,---,0.00,VWS V14.01,2013-03-24 23:41:00,
2013-03-24 16:52:00,59.5,49.3,29.98,North,354,0.0,1.0,69,0.00,,---,0.00,VWS V14.01,2013-03-24 23:52:00,
2013-03-24 17:01:00,59.1,49.3,29.98,North,354,0.0,0.0,70,0.00,,---,0.00,VWS V14.01,2013-03-25 00:01:00,
2013-03-24 17:11:00,58.7,49.3,29.98,North,354,0.0,0.0,71,0.00,,---,0.00,VWS V14.01,2013-03-25 00:11:00,
2013-03-24 17:21:00,57.6,49.0,29.97,North,354,0.0,0.0,73,0.00,,---,0.00,VWS V14.01,2013-03-25 00:21:00,
2013-03-24 17:31:00,56.5,48.7,29.97,North,354,0.0,0.0,75,0.00,,---,0.00,VWS V14.01,2013-03-25 00:31:00,
2013-03-24 17:41:00,55.6,48.2,29.97,North,354,0.0,0.0,76,0.00,,---,0.00,VWS V14.01,2013-03-25 00:41:00,
2013-03-24 17:51:00,54.8,48.4,29.97,North,354,0.0,0.0,79,0.00,,---,0.00,VWS V14.01,2013-03-25 00:51:00,
2013-03-24 18:01:00,54.3,47.9,29.97,North,354,0.0,0.0,79,0.00,,---,0.00,VWS V14.01,2013-03-25 01:01:00,
2013-03-24 18:12:00,53.9,47.9,29.97,North,354,0.0,0.0,80,0.00,,---,0.00,VWS V14.01,2013-03-25 01:12:00,
2013-03-24 18:21:00,53.5,47.8,29.97,North,354,0.0,0.0,81,0.00,,---,0.00,VWS V14.01,2013-03-25 01:21:00,
2013-03-24 18:32:00,53.1,47.7,29.97,North,354,0.0,0.0,82,0.00,,---,0.00,VWS V14.01,2013-03-25 01:32:00,
2013-03-24 18:41:00,52.7,47.7,29.97,North,354,0.0,0.0,83,0.00,,---,0.00,VWS V14.01,2013-03-25 01:41:00,
2013-03-24 18:51:00,52.3,47.3,29.97,North,354,0.0,0.0,83,0.00,,---,0.00,VWS V14.01,2013-03-25 01:51:00,
2013-03-24 19:01:00,52.0,47.3,29.97,North,354,0.0,0.0,84,0.00,,---,0.00,VWS V14.01,2013-03-25 02:01:00,
2013-03-24 19:11:00,51.6,46.9,29.97,North,354,0.0,0.0,84,0.00,,---,0.00,VWS V14.01,2013-03-25 02:11:00,
2013-03-24 19:21:00,51.0,46.6,29.96,North,354,0.0,0.0,85,0.00,,---,0.00,VWS V14.01,2013-03-25 02:21:00,
2013-03-24 19:31:00,50.5,46.5,29.96,North,354,0.0,0.0,86,0.00,,---,0.00,VWS V14.01,2013-03-25 02:31:00,
2013-03-24 19:41:00,50.0,46.3,29.96,North,354,0.0,0.0,87,0.00,,---,0.00,VWS V14.01,2013-03-25 02:41:00,
2013-03-24 19:51:00,49.7,46.3,29.97,North,354,0.0,0.0,88,0.00,,---,0.00,VWS V14.01,2013-03-25 02:51:00,
2013-03-24 20:02:00,49.3,46.2,29.97,North,354,0.0,0.0,89,0.00,,---,0.00,VWS V14.01,2013-03-25 03:02:00,
2013-03-24 20:11:00,49.0,45.9,29.97,North,354,0.0,0.0,89,0.00,,---,0.00,VWS V14.01,2013-03-25 03:11:00,
2013-03-24 20:21:00,48.7,45.9,29.97,North,354,0.0,0.0,90,0.00,,---,0.00,VWS V14.01,2013-03-25 03:21:00,
2013-03-24 20:31:00,48.4,45.9,29.97,North,354,0.0,0.0,91,0.00,,---,0.00,VWS V14.01,2013-03-25 03:31:00,
2013-03-24 20:41:00,48.2,45.7,29.97,North,354,0.0,0.0,91,0.00,,---,0.00,VWS V14.01,2013-03-25 03:41:00,
2013-03-24 20:51:00,48.1,45.9,29.98,North,354,0.0,0.0,92,0.00,,---,0.00,VWS V14.01,2013-03-25 03:51:00,
2013-03-24 21:01:00,47.9,45.7,29.98,North,354,0.0,0.0,92,0.00,,---,0.00,VWS V14.01,2013-03-25 04:01:00,
2013-03-24 21:11:00,47.7,45.5,29.98,North,354,0.0,0.0,92,0.00,,---,0.00,VWS V14.01,2013-03-25 04:11:00,
2013-03-24 21:21:00,47.5,45.6,29.98,North,354,0.0,0.0,93,0.00,,---,0.00,VWS V14.01,2013-03-25 04:21:00,
2013-03-24 21:26:00,47.4,45.5,29.99,North,354,0.0,0.0,93,0.00,,---,0.00,VWS V14.01,2013-03-25 04:26:00,
2013-03-24 21:31:00,47.3,45.4,29.99,North,354,0.0,0.0,93,0.00,,---,0.00,VWS V14.01,2013-03-25 04:31:00,
2013-03-24 21:41:00,47.1,45.2,29.99,North,354,0.0,0.0,93,0.00,,---,0.00,VWS V14.01,2013-03-25 04:41:00,
2013-03-24 21:51:00,47.0,45.3,29.99,North,354,0.0,0.0,94,0.00,,---,0.00,VWS V14.01,2013-03-25 04:51:00,
2013-03-24 21:56:00,46.9,45.2,29.99,North,354,0.0,0.0,94,0.00,,---,0.00,VWS V14.01,2013-03-25 04:56:00,
2013-03-24 22:01:00,46.9,45.2,29.99,North,354,0.0,0.0,94,0.00,,---,0.00,VWS V14.01,2013-03-25 05:01:00,
2013-03-24 22:11:00,46.9,45.2,29.99,North,354,0.0,0.0,94,0.00,,---,0.00,VWS V14.01,2013-03-25 05:11:00,
2013-03-24 22:21:00,46.8,45.2,29.99,North,354,0.0,0.0,94,0.00,,---,0.00,VWS V14.01,2013-03-25 05:21:00,
2013-03-24 22:26:00,46.7,45.0,29.99,North,354,0.0,0.0,94,0.00,,---,0.00,VWS V14.01,2013-03-25 05:26:00,
2013-03-24 22:31:00,46.5,44.9,29.99,North,354,0.0,0.0,94,0.00,,---,0.00,VWS V14.01,2013-03-25 05:31:00,
2013-03-24 22:41:00,46.3,44.9,30.00,North,354,0.0,0.0,95,0.00,,---,0.00,VWS V14.01,2013-03-25 05:41:00,
2013-03-24 22:51:00,46.3,45.2,29.99,North,354,0.0,0.0,96,0.00,,---,0.00,VWS V14.01,2013-03-25 05:51:00,
2013-03-24 22:57:00,46.3,45.2,29.99,North,354,0.0,0.0,96,0.00,,---,0.00,VWS V14.01,2013-03-25 05:57:00,
2013-03-24 23:11:00,46.1,44.7,29.99,North,354,0.0,0.0,95,0.00,,---,0.00,VWS V14.01,2013-03-25 06:11:00,
2013-03-24 23:21:00,46.0,44.6,30.00,North,354,0.0,0.0,95,0.00,,---,0.00,VWS V14.01,2013-03-25 06:21:00,
2013-03-24 23:27:00,45.8,44.4,30.00,North,354,0.0,0.0,95,0.00,,---,0.00,VWS V14.01,2013-03-25 06:27:00,
2013-03-24 23:41:00,45.5,44.4,30.00,North,354,0.0,0.0,96,0.00,,---,0.00,VWS V14.01,2013-03-25 06:41:00,
2013-03-24 23:52:00,45.3,44.2,30.00,North,354,0.0,0.0,96,0.00,,---,0.00,VWS V14.01,2013-03-25 06:52:00,
2013-03-24 23:57:00,45.2,44.1,29.99,North,354,0.0,0.0,96,0.00,,---,0.00,VWS V14.01,2013-03-25 06:57:00,